Terminal Aerodrome Forecast
Issued by NWS Jackson, KY

Home | Current Version | Previous Version | Text Only | Print | Product List | Glossary On
Versions: 1 2 3 4 5 6 7 8 9 10 11 12 13 14
522
FTUS43 KJKL 160538
TAFJKL
TAF
KJKL 160538Z 1606/1706 VRB05KT P6SM BKN040
     FM160700 24006KT P6SM SCT040
     FM160800 23006KT P6SM SCT250=

USA.gov is the U.S. government's official web portal to all federal, state and local government web resources and services.